sensor_id;sensor_type;location;lat;lon;timestamp;P1;durP1;ratioP1;P2;durP2;ratioP2
52512;SDS011;38422;53.172;6.974;2023-03-01T00:00:14;13.38;;;10.30;;
52512;SDS011;38422;53.172;6.974;2023-03-01T00:02:40;13.68;;;10.35;;
52512;SDS011;38422;53.172;6.974;2023-03-01T00:05:06;13.07;;;9.88;;
52512;SDS011;38422;53.172;6.974;2023-03-01T00:07:32;14.68;;;11.18;;
52512;SDS011;38422;53.172;6.974;2023-03-01T00:09:58;16.50;;;11.85;;
52512;SDS011;38422;53.172;6.974;2023-03-01T00:12:24;16.55;;;11.80;;
52512;SDS011;38422;53.172;6.974;2023-03-01T00:14:49;15.02;;;10.93;;
52512;SDS011;38422;53.172;6.974;2023-03-01T00:17:15;16.08;;;10.77;;
52512;SDS011;38422;53.172;6.974;2023-03-01T00:19:42;14.70;;;10.30;;
52512;SDS011;38422;53.172;6.974;2023-03-01T00:22:07;14.38;;;10.82;;
52512;SDS011;38422;53.172;6.974;2023-03-01T00:24:33;14.07;;;10.82;;
52512;SDS011;38422;53.172;6.974;2023-03-01T00:26:58;13.93;;;10.55;;
52512;SDS011;38422;53.172;6.974;2023-03-01T00:29:24;14.27;;;10.43;;
52512;SDS011;38422;53.172;6.974;2023-03-01T00:31:50;12.77;;;10.32;;
52512;SDS011;38422;53.172;6.974;2023-03-01T00:34:16;14.88;;;10.88;;
52512;SDS011;38422;53.172;6.974;2023-03-01T00:36:42;15.52;;;10.77;;
52512;SDS011;38422;53.172;6.974;2023-03-01T00:39:10;14.00;;;10.50;;
52512;SDS011;38422;53.172;6.974;2023-03-01T00:41:38;14.35;;;9.98;;
52512;SDS011;38422;53.172;6.974;2023-03-01T00:44:05;15.93;;;10.57;;
52512;SDS011;38422;53.172;6.974;2023-03-01T00:46:31;15.32;;;10.35;;
52512;SDS011;38422;53.172;6.974;2023-03-01T00:48:56;13.55;;;10.52;;
52512;SDS011;38422;53.172;6.974;2023-03-01T00:51:23;15.05;;;9.88;;
52512;SDS011;38422;53.172;6.974;2023-03-01T00:53:51;13.18;;;10.10;;
52512;SDS011;38422;53.172;6.974;2023-03-01T00:56:18;13.57;;;9.07;;
52512;SDS011;38422;53.172;6.974;2023-03-01T00:58:44;13.10;;;9.70;;
52512;SDS011;38422;53.172;6.974;2023-03-01T01:01:11;13.80;;;9.30;;
52512;SDS011;38422;53.172;6.974;2023-03-01T01:03:52;14.18;;;9.90;;
52512;SDS011;38422;53.172;6.974;2023-03-01T01:06:21;12.80;;;9.85;;
52512;SDS011;38422;53.172;6.974;2023-03-01T01:12:30;14.52;;;10.75;;
52512;SDS011;38422;53.172;6.974;2023-03-01T01:14:56;13.68;;;10.63;;
52512;SDS011;38422;53.172;6.974;2023-03-01T01:17:21;12.70;;;10.05;;
52512;SDS011;38422;53.172;6.974;2023-03-01T01:19:47;15.45;;;10.02;;
52512;SDS011;38422;53.172;6.974;2023-03-01T01:22:13;14.15;;;10.20;;
52512;SDS011;38422;53.172;6.974;2023-03-01T01:24:39;12.55;;;9.70;;
52512;SDS011;38422;53.172;6.974;2023-03-01T01:27:04;12.90;;;9.68;;
52512;SDS011;38422;53.172;6.974;2023-03-01T01:29:32;12.52;;;9.60;;
52512;SDS011;38422;53.172;6.974;2023-03-01T01:31:58;14.18;;;9.77;;
52512;SDS011;38422;53.172;6.974;2023-03-01T01:34:23;14.25;;;10.07;;
52512;SDS011;38422;53.172;6.974;2023-03-01T01:36:49;14.60;;;10.20;;
52512;SDS011;38422;53.172;6.974;2023-03-01T01:39:19;13.63;;;9.70;;
52512;SDS011;38422;53.172;6.974;2023-03-01T01:41:47;13.27;;;9.38;;
52512;SDS011;38422;53.172;6.974;2023-03-01T01:44:21;13.82;;;10.35;;
52512;SDS011;38422;53.172;6.974;2023-03-01T01:49:51;13.45;;;10.10;;
52512;SDS011;38422;53.172;6.974;2023-03-01T01:57:49;12.23;;;9.30;;
52512;SDS011;38422;53.172;6.974;2023-03-01T02:00:25;13.75;;;10.05;;
52512;SDS011;38422;53.172;6.974;2023-03-01T02:03:03;14.23;;;10.50;;
52512;SDS011;38422;53.172;6.974;2023-03-01T02:05:44;13.77;;;10.40;;
52512;SDS011;38422;53.172;6.974;2023-03-01T02:08:11;14.47;;;10.30;;
52512;SDS011;38422;53.172;6.974;2023-03-01T02:10:38;13.18;;;10.20;;
52512;SDS011;38422;53.172;6.974;2023-03-01T02:13:05;14.07;;;10.27;;
52512;SDS011;38422;53.172;6.974;2023-03-01T02:15:35;15.75;;;10.65;;
52512;SDS011;38422;53.172;6.974;2023-03-01T02:18:03;14.32;;;10.48;;
52512;SDS011;38422;53.172;6.974;2023-03-01T02:20:35;14.60;;;10.63;;
52512;SDS011;38422;53.172;6.974;2023-03-01T02:23:07;14.35;;;10.25;;
52512;SDS011;38422;53.172;6.974;2023-03-01T02:25:41;13.95;;;10.68;;
52512;SDS011;38422;53.172;6.974;2023-03-01T02:31:01;14.85;;;10.57;;
52512;SDS011;38422;53.172;6.974;2023-03-01T02:33:48;14.52;;;10.40;;
52512;SDS011;38422;53.172;6.974;2023-03-01T02:36:15;13.65;;;10.48;;
52512;SDS011;38422;53.172;6.974;2023-03-01T02:38:44;14.32;;;10.57;;
52512;SDS011;38422;53.172;6.974;2023-03-01T02:41:11;14.40;;;9.98;;
52512;SDS011;38422;53.172;6.974;2023-03-01T02:43:40;13.80;;;10.25;;
52512;SDS011;38422;53.172;6.974;2023-03-01T02:46:22;14.13;;;10.27;;
52512;SDS011;38422;53.172;6.974;2023-03-01T02:48:51;15.85;;;10.93;;
52512;SDS011;38422;53.172;6.974;2023-03-01T02:51:21;13.35;;;10.15;;
52512;SDS011;38422;53.172;6.974;2023-03-01T02:56:35;15.52;;;10.80;;
52512;SDS011;38422;53.172;6.974;2023-03-01T02:59:01;14.25;;;10.43;;
52512;SDS011;38422;53.172;6.974;2023-03-01T03:01:27;14.98;;;10.70;;
52512;SDS011;38422;53.172;6.974;2023-03-01T03:04:06;14.10;;;10.35;;
52512;SDS011;38422;53.172;6.974;2023-03-01T03:06:34;14.80;;;10.90;;
52512;SDS011;38422;53.172;6.974;2023-03-01T03:09:01;15.43;;;11.07;;
52512;SDS011;38422;53.172;6.974;2023-03-01T03:11:27;16.23;;;11.20;;
52512;SDS011;38422;53.172;6.974;2023-03-01T03:13:53;14.00;;;10.52;;
52512;SDS011;38422;53.172;6.974;2023-03-01T03:16:19;13.55;;;10.15;;
52512;SDS011;38422;53.172;6.974;2023-03-01T03:18:45;15.82;;;11.82;;
52512;SDS011;38422;53.172;6.974;2023-03-01T03:21:11;16.50;;;11.43;;
52512;SDS011;38422;53.172;6.974;2023-03-01T03:23:38;15.55;;;11.07;;
52512;SDS011;38422;53.172;6.974;2023-03-01T03:26:05;14.32;;;10.93;;
52512;SDS011;38422;53.172;6.974;2023-03-01T03:28:31;17.47;;;11.17;;
52512;SDS011;38422;53.172;6.974;2023-03-01T03:30:58;13.52;;;10.73;;
52512;SDS011;38422;53.172;6.974;2023-03-01T03:33:28;16.30;;;11.60;;
52512;SDS011;38422;53.172;6.974;2023-03-01T03:35:54;15.23;;;10.93;;
52512;SDS011;38422;53.172;6.974;2023-03-01T03:38:20;14.50;;;10.98;;
52512;SDS011;38422;53.172;6.974;2023-03-01T03:41:06;16.58;;;11.75;;
52512;SDS011;38422;53.172;6.974;2023-03-01T03:43:33;17.00;;;11.75;;
52512;SDS011;38422;53.172;6.974;2023-03-01T03:46:00;15.57;;;11.30;;
52512;SDS011;38422;53.172;6.974;2023-03-01T03:48:31;16.60;;;11.35;;
52512;SDS011;38422;53.172;6.974;2023-03-01T03:51:01;16.30;;;11.95;;
52512;SDS011;38422;53.172;6.974;2023-03-01T03:53:30;16.60;;;11.52;;
52512;SDS011;38422;53.172;6.974;2023-03-01T03:55:56;17.02;;;11.90;;
52512;SDS011;38422;53.172;6.974;2023-03-01T03:58:23;17.47;;;11.73;;
52512;SDS011;38422;53.172;6.974;2023-03-01T04:00:54;18.00;;;12.80;;
52512;SDS011;38422;53.172;6.974;2023-03-01T04:03:22;16.35;;;11.98;;
52512;SDS011;38422;53.172;6.974;2023-03-01T04:05:49;16.95;;;12.30;;
52512;SDS011;38422;53.172;6.974;2023-03-01T04:08:16;19.70;;;13.77;;
52512;SDS011;38422;53.172;6.974;2023-03-01T04:10:45;21.15;;;13.27;;
52512;SDS011;38422;53.172;6.974;2023-03-01T04:13:14;22.90;;;15.02;;
52512;SDS011;38422;53.172;6.974;2023-03-01T04:15:42;34.63;;;16.83;;
52512;SDS011;38422;53.172;6.974;2023-03-01T04:18:14;20.63;;;15.45;;
52512;SDS011;38422;53.172;6.974;2023-03-01T04:20:41;30.60;;;18.15;;
52512;SDS011;38422;53.172;6.974;2023-03-01T04:23:12;20.90;;;15.65;;
52512;SDS011;38422;53.172;6.974;2023-03-01T04:25:46;21.88;;;15.43;;
52512;SDS011;38422;53.172;6.974;2023-03-01T04:28:23;21.25;;;15.40;;
52512;SDS011;38422;53.172;6.974;2023-03-01T04:30:51;22.90;;;15.40;;
52512;SDS011;38422;53.172;6.974;2023-03-01T04:33:17;19.20;;;13.88;;
52512;SDS011;38422;53.172;6.974;2023-03-01T04:35:43;20.92;;;14.55;;
52512;SDS011;38422;53.172;6.974;2023-03-01T04:38:09;19.20;;;13.00;;
52512;SDS011;38422;53.172;6.974;2023-03-01T04:40:36;18.63;;;12.95;;
52512;SDS011;38422;53.172;6.974;2023-03-01T04:43:02;17.77;;;13.20;;
52512;SDS011;38422;53.172;6.974;2023-03-01T04:45:29;20.27;;;13.88;;
52512;SDS011;38422;53.172;6.974;2023-03-01T04:47:56;16.55;;;12.55;;
52512;SDS011;38422;53.172;6.974;2023-03-01T04:50:23;19.47;;;13.40;;
52512;SDS011;38422;53.172;6.974;2023-03-01T04:52:50;17.83;;;12.90;;
52512;SDS011;38422;53.172;6.974;2023-03-01T04:55:16;18.52;;;12.93;;
52512;SDS011;38422;53.172;6.974;2023-03-01T04:57:42;19.10;;;13.05;;
52512;SDS011;38422;53.172;6.974;2023-03-01T05:00:12;18.13;;;12.50;;
52512;SDS011;38422;53.172;6.974;2023-03-01T05:02:48;16.45;;;12.57;;
52512;SDS011;38422;53.172;6.974;2023-03-01T05:05:39;16.77;;;12.45;;
52512;SDS011;38422;53.172;6.974;2023-03-01T05:08:07;16.88;;;12.60;;
52512;SDS011;38422;53.172;6.974;2023-03-01T05:10:34;16.85;;;12.70;;
52512;SDS011;38422;53.172;6.974;2023-03-01T05:15:28;16.35;;;12.30;;
52512;SDS011;38422;53.172;6.974;2023-03-01T05:17:56;17.55;;;12.40;;
52512;SDS011;38422;53.172;6.974;2023-03-01T05:20:26;16.50;;;12.43;;
52512;SDS011;38422;53.172;6.974;2023-03-01T05:22:55;16.00;;;11.55;;
52512;SDS011;38422;53.172;6.974;2023-03-01T05:25:23;15.60;;;11.77;;
52512;SDS011;38422;53.172;6.974;2023-03-01T05:27:50;16.58;;;12.70;;
52512;SDS011;38422;53.172;6.974;2023-03-01T05:30:16;14.88;;;11.15;;
52512;SDS011;38422;53.172;6.974;2023-03-01T05:32:43;16.43;;;11.70;;
52512;SDS011;38422;53.172;6.974;2023-03-01T05:35:14;17.65;;;11.85;;
52512;SDS011;38422;53.172;6.974;2023-03-01T05:37:45;17.92;;;11.70;;
52512;SDS011;38422;53.172;6.974;2023-03-01T05:40:13;15.10;;;11.68;;
52512;SDS011;38422;53.172;6.974;2023-03-01T05:42:46;15.52;;;11.65;;
52512;SDS011;38422;53.172;6.974;2023-03-01T05:45:20;16.10;;;12.23;;
52512;SDS011;38422;53.172;6.974;2023-03-01T05:47:47;16.65;;;11.43;;
52512;SDS011;38422;53.172;6.974;2023-03-01T05:50:21;14.93;;;11.10;;
52512;SDS011;38422;53.172;6.974;2023-03-01T05:53:06;16.55;;;11.90;;
52512;SDS011;38422;53.172;6.974;2023-03-01T05:55:40;15.52;;;12.02;;
52512;SDS011;38422;53.172;6.974;2023-03-01T05:58:09;14.80;;;11.48;;
52512;SDS011;38422;53.172;6.974;2023-03-01T06:00:38;14.45;;;11.13;;
52512;SDS011;38422;53.172;6.974;2023-03-01T06:03:04;14.68;;;10.73;;
52512;SDS011;38422;53.172;6.974;2023-03-01T06:05:30;16.33;;;10.88;;
52512;SDS011;38422;53.172;6.974;2023-03-01T06:08:00;14.23;;;10.88;;
52512;SDS011;38422;53.172;6.974;2023-03-01T06:10:26;15.10;;;10.82;;
52512;SDS011;38422;53.172;6.974;2023-03-01T06:12:52;15.25;;;10.63;;
52512;SDS011;38422;53.172;6.974;2023-03-01T06:15:18;15.07;;;10.63;;
52512;SDS011;38422;53.172;6.974;2023-03-01T06:17:45;13.50;;;10.07;;
52512;SDS011;38422;53.172;6.974;2023-03-01T06:20:18;14.37;;;10.03;;
52512;SDS011;38422;53.172;6.974;2023-03-01T06:22:46;13.80;;;9.73;;
52512;SDS011;38422;53.172;6.974;2023-03-01T06:25:13;15.00;;;9.93;;
52512;SDS011;38422;53.172;6.974;2023-03-01T06:27:40;13.07;;;9.15;;
52512;SDS011;38422;53.172;6.974;2023-03-01T06:30:07;12.32;;;8.65;;
52512;SDS011;38422;53.172;6.974;2023-03-01T06:32:35;11.80;;;8.65;;
52512;SDS011;38422;53.172;6.974;2023-03-01T06:35:02;11.50;;;8.80;;
52512;SDS011;38422;53.172;6.974;2023-03-01T06:37:28;11.88;;;8.75;;
52512;SDS011;38422;53.172;6.974;2023-03-01T06:39:54;10.55;;;8.35;;
52512;SDS011;38422;53.172;6.974;2023-03-01T06:42:20;11.65;;;8.45;;
52512;SDS011;38422;53.172;6.974;2023-03-01T06:44:46;10.82;;;8.02;;
52512;SDS011;38422;53.172;6.974;2023-03-01T06:47:12;9.48;;;7.95;;
52512;SDS011;38422;53.172;6.974;2023-03-01T06:49:37;10.90;;;7.95;;
52512;SDS011;38422;53.172;6.974;2023-03-01T06:52:03;10.70;;;8.48;;
52512;SDS011;38422;53.172;6.974;2023-03-01T06:54:29;13.07;;;8.60;;
52512;SDS011;38422;53.172;6.974;2023-03-01T06:56:54;11.15;;;8.23;;
52512;SDS011;38422;53.172;6.974;2023-03-01T06:59:20;11.30;;;8.45;;
52512;SDS011;38422;53.172;6.974;2023-03-01T07:01:46;10.23;;;8.55;;
52512;SDS011;38422;53.172;6.974;2023-03-01T07:04:12;11.05;;;8.23;;
52512;SDS011;38422;53.172;6.974;2023-03-01T07:06:38;11.33;;;8.87;;
52512;SDS011;38422;53.172;6.974;2023-03-01T07:09:04;11.95;;;9.23;;
52512;SDS011;38422;53.172;6.974;2023-03-01T07:14:20;12.55;;;9.50;;
52512;SDS011;38422;53.172;6.974;2023-03-01T07:16:46;13.35;;;9.75;;
52512;SDS011;38422;53.172;6.974;2023-03-01T07:19:12;13.82;;;10.23;;
52512;SDS011;38422;53.172;6.974;2023-03-01T07:21:38;14.18;;;11.13;;
52512;SDS011;38422;53.172;6.974;2023-03-01T07:24:05;16.30;;;11.75;;
52512;SDS011;38422;53.172;6.974;2023-03-01T07:26:32;15.88;;;11.18;;
52512;SDS011;38422;53.172;6.974;2023-03-01T07:29:02;14.50;;;10.80;;
52512;SDS011;38422;53.172;6.974;2023-03-01T07:31:29;14.48;;;10.40;;
52512;SDS011;38422;53.172;6.974;2023-03-01T07:33:55;10.27;;;8.63;;
52512;SDS011;38422;53.172;6.974;2023-03-01T07:36:21;12.00;;;9.20;;
52512;SDS011;38422;53.172;6.974;2023-03-01T07:38:47;11.20;;;8.98;;
52512;SDS011;38422;53.172;6.974;2023-03-01T07:41:13;13.38;;;9.13;;
52512;SDS011;38422;53.172;6.974;2023-03-01T07:43:39;11.73;;;9.02;;
52512;SDS011;38422;53.172;6.974;2023-03-01T07:46:05;12.20;;;9.32;;
52512;SDS011;38422;53.172;6.974;2023-03-01T07:48:32;13.25;;;10.15;;
52512;SDS011;38422;53.172;6.974;2023-03-01T07:50:58;15.23;;;11.00;;
52512;SDS011;38422;53.172;6.974;2023-03-01T07:53:28;23.85;;;16.27;;
52512;SDS011;38422;53.172;6.974;2023-03-01T07:56:09;23.55;;;15.68;;
52512;SDS011;38422;53.172;6.974;2023-03-01T07:58:37;25.98;;;16.88;;
52512;SDS011;38422;53.172;6.974;2023-03-01T08:01:08;26.27;;;17.55;;
52512;SDS011;38422;53.172;6.974;2023-03-01T08:03:35;31.52;;;17.67;;
52512;SDS011;38422;53.172;6.974;2023-03-01T08:06:02;25.27;;;17.08;;
52512;SDS011;38422;53.172;6.974;2023-03-01T08:08:29;28.48;;;17.60;;
52512;SDS011;38422;53.172;6.974;2023-03-01T08:10:56;23.42;;;15.52;;
52512;SDS011;38422;53.172;6.974;2023-03-01T08:13:23;24.83;;;16.02;;
52512;SDS011;38422;53.172;6.974;2023-03-01T08:15:49;24.05;;;16.00;;
52512;SDS011;38422;53.172;6.974;2023-03-01T08:18:18;28.88;;;16.88;;
52512;SDS011;38422;53.172;6.974;2023-03-01T08:20:44;23.77;;;16.02;;
52512;SDS011;38422;53.172;6.974;2023-03-01T08:23:10;29.48;;;16.42;;
52512;SDS011;38422;53.172;6.974;2023-03-01T08:25:37;27.00;;;15.88;;
52512;SDS011;38422;53.172;6.974;2023-03-01T08:28:03;29.98;;;15.55;;
52512;SDS011;38422;53.172;6.974;2023-03-01T08:30:29;42.95;;;15.38;;
52512;SDS011;38422;53.172;6.974;2023-03-01T08:32:54;31.55;;;16.40;;
52512;SDS011;38422;53.172;6.974;2023-03-01T08:35:20;23.00;;;14.43;;
52512;SDS011;38422;53.172;6.974;2023-03-01T08:37:47;24.33;;;14.85;;
52512;SDS011;38422;53.172;6.974;2023-03-01T08:40:13;23.20;;;15.10;;
52512;SDS011;38422;53.172;6.974;2023-03-01T08:42:39;20.58;;;14.77;;
52512;SDS011;38422;53.172;6.974;2023-03-01T08:45:06;20.17;;;14.55;;
52512;SDS011;38422;53.172;6.974;2023-03-01T08:47:32;21.50;;;15.00;;
52512;SDS011;38422;53.172;6.974;2023-03-01T08:49:59;18.90;;;14.15;;
52512;SDS011;38422;53.172;6.974;2023-03-01T08:52:25;20.48;;;14.05;;
52512;SDS011;38422;53.172;6.974;2023-03-01T08:54:51;19.65;;;13.70;;
52512;SDS011;38422;53.172;6.974;2023-03-01T08:57:17;19.08;;;14.27;;
52512;SDS011;38422;53.172;6.974;2023-03-01T08:59:43;18.15;;;13.55;;
52512;SDS011;38422;53.172;6.974;2023-03-01T09:02:13;19.42;;;14.10;;
52512;SDS011;38422;53.172;6.974;2023-03-01T09:04:48;19.88;;;14.85;;
52512;SDS011;38422;53.172;6.974;2023-03-01T09:13:53;23.65;;;16.42;;
52512;SDS011;38422;53.172;6.974;2023-03-01T09:16:20;19.92;;;15.80;;
52512;SDS011;38422;53.172;6.974;2023-03-01T09:18:56;22.60;;;16.00;;
52512;SDS011;38422;53.172;6.974;2023-03-01T09:21:22;23.23;;;16.55;;
52512;SDS011;38422;53.172;6.974;2023-03-01T09:23:48;19.97;;;15.33;;
52512;SDS011;38422;53.172;6.974;2023-03-01T09:26:16;20.70;;;15.80;;
52512;SDS011;38422;53.172;6.974;2023-03-01T10:19:03;19.48;;;14.48;;
52512;SDS011;38422;53.172;6.974;2023-03-01T10:29:09;18.02;;;14.52;;
52512;SDS011;38422;53.172;6.974;2023-03-01T10:31:37;17.23;;;14.10;;
52512;SDS011;38422;53.172;6.974;2023-03-01T10:41:27;16.42;;;13.02;;
52512;SDS011;38422;53.172;6.974;2023-03-01T10:43:54;15.27;;;12.23;;
52512;SDS011;38422;53.172;6.974;2023-03-01T10:56:16;16.08;;;12.15;;
52512;SDS011;38422;53.172;6.974;2023-03-01T11:02:11;16.45;;;12.85;;
52512;SDS011;38422;53.172;6.974;2023-03-01T11:04:56;17.17;;;13.85;;
52512;SDS011;38422;53.172;6.974;2023-03-01T11:12:13;16.77;;;13.70;;
52512;SDS011;38422;53.172;6.974;2023-03-01T11:14:48;15.07;;;12.25;;
52512;SDS011;38422;53.172;6.974;2023-03-01T11:25:13;14.38;;;11.90;;
52512;SDS011;38422;53.172;6.974;2023-03-01T11:27:43;14.68;;;11.20;;
52512;SDS011;38422;53.172;6.974;2023-03-01T11:39:28;16.17;;;12.02;;
52512;SDS011;38422;53.172;6.974;2023-03-01T11:57:56;12.43;;;10.73;;
52512;SDS011;38422;53.172;6.974;2023-03-01T12:03:42;12.57;;;10.80;;
52512;SDS011;38422;53.172;6.974;2023-03-01T12:17:35;12.52;;;10.30;;
52512;SDS011;38422;53.172;6.974;2023-03-01T12:23:56;10.75;;;9.35;;
52512;SDS011;38422;53.172;6.974;2023-03-01T12:35:02;10.60;;;8.50;;
52512;SDS011;38422;53.172;6.974;2023-03-01T12:38:05;10.40;;;8.68;;
52512;SDS011;38422;53.172;6.974;2023-03-01T12:43:15;11.45;;;9.02;;
52512;SDS011;38422;53.172;6.974;2023-03-01T12:48:47;10.80;;;8.77;;
52512;SDS011;38422;53.172;6.974;2023-03-01T12:51:26;10.65;;;9.15;;
52512;SDS011;38422;53.172;6.974;2023-03-01T12:53:55;11.70;;;9.52;;
52512;SDS011;38422;53.172;6.974;2023-03-01T12:56:25;11.50;;;9.32;;
52512;SDS011;38422;53.172;6.974;2023-03-01T13:01:42;13.35;;;10.48;;
52512;SDS011;38422;53.172;6.974;2023-03-01T13:06:54;13.00;;;10.27;;
52512;SDS011;38422;53.172;6.974;2023-03-01T13:12:50;12.57;;;10.20;;
52512;SDS011;38422;53.172;6.974;2023-03-01T13:33:42;12.20;;;10.65;;
52512;SDS011;38422;53.172;6.974;2023-03-01T13:36:08;12.32;;;10.07;;
52512;SDS011;38422;53.172;6.974;2023-03-01T13:38:45;11.57;;;9.70;;
52512;SDS011;38422;53.172;6.974;2023-03-01T13:41:16;11.23;;;9.95;;
52512;SDS011;38422;53.172;6.974;2023-03-01T13:44:11;11.88;;;10.63;;
52512;SDS011;38422;53.172;6.974;2023-03-01T13:46:45;13.95;;;10.57;;
52512;SDS011;38422;53.172;6.974;2023-03-01T13:49:16;11.23;;;9.35;;
52512;SDS011;38422;53.172;6.974;2023-03-01T13:51:50;12.25;;;9.95;;
52512;SDS011;38422;53.172;6.974;2023-03-01T13:54:19;12.52;;;9.80;;
52512;SDS011;38422;53.172;6.974;2023-03-01T13:56:54;12.50;;;10.38;;
52512;SDS011;38422;53.172;6.974;2023-03-01T13:59:22;12.05;;;9.98;;
52512;SDS011;38422;53.172;6.974;2023-03-01T14:01:58;11.05;;;9.68;;
52512;SDS011;38422;53.172;6.974;2023-03-01T14:09:58;11.55;;;9.70;;
52512;SDS011;38422;53.172;6.974;2023-03-01T14:15:19;14.23;;;10.30;;
52512;SDS011;38422;53.172;6.974;2023-03-01T14:18:28;12.38;;;9.88;;
52512;SDS011;38422;53.172;6.974;2023-03-01T14:21:17;13.95;;;9.75;;
52512;SDS011;38422;53.172;6.974;2023-03-01T14:23:44;11.00;;;9.55;;
52512;SDS011;38422;53.172;6.974;2023-03-01T14:26:11;13.50;;;10.05;;
52512;SDS011;38422;53.172;6.974;2023-03-01T14:28:37;12.43;;;10.20;;
52512;SDS011;38422;53.172;6.974;2023-03-01T14:31:29;14.70;;;10.45;;
52512;SDS011;38422;53.172;6.974;2023-03-01T14:34:16;10.73;;;9.63;;
52512;SDS011;38422;53.172;6.974;2023-03-01T14:37:16;12.18;;;9.93;;
52512;SDS011;38422;53.172;6.974;2023-03-01T14:47:04;11.82;;;10.43;;
52512;SDS011;38422;53.172;6.974;2023-03-01T14:49:30;12.25;;;10.05;;
52512;SDS011;38422;53.172;6.974;2023-03-01T14:52:01;14.05;;;10.52;;
52512;SDS011;38422;53.172;6.974;2023-03-01T14:54:42;11.38;;;10.25;;
52512;SDS011;38422;53.172;6.974;2023-03-01T14:57:18;13.20;;;9.60;;
52512;SDS011;38422;53.172;6.974;2023-03-01T15:00:26;11.63;;;9.45;;
52512;SDS011;38422;53.172;6.974;2023-03-01T15:02:54;11.43;;;9.80;;
52512;SDS011;38422;53.172;6.974;2023-03-01T15:06:21;11.70;;;10.02;;
52512;SDS011;38422;53.172;6.974;2023-03-01T15:11:41;11.18;;;9.77;;
52512;SDS011;38422;53.172;6.974;2023-03-01T15:19:59;12.60;;;10.15;;
52512;SDS011;38422;53.172;6.974;2023-03-01T15:22:27;11.10;;;9.18;;
52512;SDS011;38422;53.172;6.974;2023-03-01T15:24:53;10.95;;;9.70;;
52512;SDS011;38422;53.172;6.974;2023-03-01T15:27:20;10.60;;;9.13;;
52512;SDS011;38422;53.172;6.974;2023-03-01T15:29:49;16.65;;;9.77;;
52512;SDS011;38422;53.172;6.974;2023-03-01T15:32:29;12.35;;;9.38;;
52512;SDS011;38422;53.172;6.974;2023-03-01T15:34:59;12.70;;;9.88;;
52512;SDS011;38422;53.172;6.974;2023-03-01T15:37:47;10.63;;;9.40;;
52512;SDS011;38422;53.172;6.974;2023-03-01T15:40:26;11.05;;;8.82;;
52512;SDS011;38422;53.172;6.974;2023-03-01T15:43:36;10.32;;;9.20;;
52512;SDS011;38422;53.172;6.974;2023-03-01T15:46:03;10.63;;;8.95;;
52512;SDS011;38422;53.172;6.974;2023-03-01T15:48:29;10.38;;;8.98;;
52512;SDS011;38422;53.172;6.974;2023-03-01T15:50:58;11.50;;;8.80;;
52512;SDS011;38422;53.172;6.974;2023-03-01T15:53:26;10.93;;;8.63;;
52512;SDS011;38422;53.172;6.974;2023-03-01T15:55:53;10.30;;;8.65;;
52512;SDS011;38422;53.172;6.974;2023-03-01T15:58:20;9.40;;;8.23;;
52512;SDS011;38422;53.172;6.974;2023-03-01T16:00:47;10.43;;;8.77;;
52512;SDS011;38422;53.172;6.974;2023-03-01T16:39:30;11.32;;;9.23;;
52512;SDS011;38422;53.172;6.974;2023-03-01T16:44:59;11.75;;;9.63;;
52512;SDS011;38422;53.172;6.974;2023-03-01T16:47:25;12.13;;;9.27;;
52512;SDS011;38422;53.172;6.974;2023-03-01T16:49:52;11.75;;;9.45;;
52512;SDS011;38422;53.172;6.974;2023-03-01T16:52:21;10.77;;;8.93;;
52512;SDS011;38422;53.172;6.974;2023-03-01T16:54:52;12.07;;;9.40;;
52512;SDS011;38422;53.172;6.974;2023-03-01T16:57:19;11.35;;;9.73;;
52512;SDS011;38422;53.172;6.974;2023-03-01T16:59:44;11.00;;;9.38;;
52512;SDS011;38422;53.172;6.974;2023-03-01T17:08:41;11.47;;;9.80;;
52512;SDS011;38422;53.172;6.974;2023-03-01T17:11:25;11.48;;;9.50;;
52512;SDS011;38422;53.172;6.974;2023-03-01T17:13:52;11.38;;;9.70;;
52512;SDS011;38422;53.172;6.974;2023-03-01T17:16:18;10.85;;;9.60;;
52512;SDS011;38422;53.172;6.974;2023-03-01T17:18:45;11.02;;;9.43;;
52512;SDS011;38422;53.172;6.974;2023-03-01T17:28:00;10.65;;;9.50;;
52512;SDS011;38422;53.172;6.974;2023-03-01T17:33:37;13.10;;;10.60;;
52512;SDS011;38422;53.172;6.974;2023-03-01T17:36:03;12.10;;;10.82;;
52512;SDS011;38422;53.172;6.974;2023-03-01T17:38:29;11.75;;;10.55;;
52512;SDS011;38422;53.172;6.974;2023-03-01T17:47:21;12.27;;;10.95;;
52512;SDS011;38422;53.172;6.974;2023-03-01T17:52:49;11.25;;;10.02;;
52512;SDS011;38422;53.172;6.974;2023-03-01T17:55:15;10.52;;;9.30;;
52512;SDS011;38422;53.172;6.974;2023-03-01T17:57:52;10.43;;;9.00;;
52512;SDS011;38422;53.172;6.974;2023-03-01T18:00:18;12.53;;;9.37;;
52512;SDS011;38422;53.172;6.974;2023-03-01T18:02:44;10.02;;;9.02;;
52512;SDS011;38422;53.172;6.974;2023-03-01T18:05:10;10.60;;;9.50;;
52512;SDS011;38422;53.172;6.974;2023-03-01T18:07:36;10.18;;;8.98;;
52512;SDS011;38422;53.172;6.974;2023-03-01T18:10:02;10.13;;;8.70;;
52512;SDS011;38422;53.172;6.974;2023-03-01T18:12:28;10.80;;;9.70;;
52512;SDS011;38422;53.172;6.974;2023-03-01T18:14:55;10.43;;;9.38;;
52512;SDS011;38422;53.172;6.974;2023-03-01T18:17:21;10.65;;;9.40;;
52512;SDS011;38422;53.172;6.974;2023-03-01T18:30:11;11.30;;;10.15;;
52512;SDS011;38422;53.172;6.974;2023-03-01T18:32:37;12.88;;;9.80;;
52512;SDS011;38422;53.172;6.974;2023-03-01T18:35:04;11.75;;;10.38;;
52512;SDS011;38422;53.172;6.974;2023-03-01T18:39:56;11.88;;;10.15;;
52512;SDS011;38422;53.172;6.974;2023-03-01T18:42:22;11.27;;;10.00;;
52512;SDS011;38422;53.172;6.974;2023-03-01T18:52:10;10.02;;;9.00;;
52512;SDS011;38422;53.172;6.974;2023-03-01T18:58:16;9.88;;;8.88;;
52512;SDS011;38422;53.172;6.974;2023-03-01T19:00:42;10.23;;;9.13;;
52512;SDS011;38422;53.172;6.974;2023-03-01T19:03:10;10.68;;;9.40;;
52512;SDS011;38422;53.172;6.974;2023-03-01T19:05:39;10.98;;;9.68;;
52512;SDS011;38422;53.172;6.974;2023-03-01T19:08:05;10.82;;;9.63;;
52512;SDS011;38422;53.172;6.974;2023-03-01T19:10:31;11.55;;;9.73;;
52512;SDS011;38422;53.172;6.974;2023-03-01T19:12:56;11.90;;;10.60;;
52512;SDS011;38422;53.172;6.974;2023-03-01T19:15:22;12.32;;;10.20;;
52512;SDS011;38422;53.172;6.974;2023-03-01T19:17:51;11.40;;;10.20;;
52512;SDS011;38422;53.172;6.974;2023-03-01T19:20:17;12.82;;;10.60;;
52512;SDS011;38422;53.172;6.974;2023-03-01T19:22:42;14.00;;;10.52;;
52512;SDS011;38422;53.172;6.974;2023-03-01T19:25:08;13.90;;;10.63;;
52512;SDS011;38422;53.172;6.974;2023-03-01T19:27:34;11.93;;;9.95;;
52512;SDS011;38422;53.172;6.974;2023-03-01T19:30:00;12.45;;;9.73;;
52512;SDS011;38422;53.172;6.974;2023-03-01T19:32:26;12.75;;;9.82;;
52512;SDS011;38422;53.172;6.974;2023-03-01T19:34:51;11.88;;;10.07;;
52512;SDS011;38422;53.172;6.974;2023-03-01T19:37:17;12.40;;;9.88;;
52512;SDS011;38422;53.172;6.974;2023-03-01T19:39:43;12.55;;;10.50;;
52512;SDS011;38422;53.172;6.974;2023-03-01T19:42:09;12.15;;;10.13;;
52512;SDS011;38422;53.172;6.974;2023-03-01T19:44:35;12.32;;;10.70;;
52512;SDS011;38422;53.172;6.974;2023-03-01T19:47:02;12.20;;;10.27;;
52512;SDS011;38422;53.172;6.974;2023-03-01T19:49:27;12.88;;;10.85;;
52512;SDS011;38422;53.172;6.974;2023-03-01T19:51:54;13.70;;;10.88;;
52512;SDS011;38422;53.172;6.974;2023-03-01T19:54:20;12.70;;;10.75;;
52512;SDS011;38422;53.172;6.974;2023-03-01T19:56:46;13.45;;;10.93;;